sensor_id;sensor_type;location;lat;lon;timestamp;temperature;humidity
16907;DHT22;8570;52.380;4.654;2023-05-07T00:01:06;16.20;99.90
16907;DHT22;8570;52.380;4.654;2023-05-07T00:06:11;16.20;99.90
16907;DHT22;8570;52.380;4.654;2023-05-07T00:16:48;16.10;99.90
16907;DHT22;8570;52.380;4.654;2023-05-07T00:22:04;16.10;99.90
16907;DHT22;8570;52.380;4.654;2023-05-07T00:27:08;16.00;99.90
16907;DHT22;8570;52.380;4.654;2023-05-07T00:32:10;16.00;99.90
16907;DHT22;8570;52.380;4.654;2023-05-07T00:37:11;16.00;99.90
16907;DHT22;8570;52.380;4.654;2023-05-07T00:47:21;16.00;99.90
16907;DHT22;8570;52.380;4.654;2023-05-07T00:52:24;15.90;99.90
16907;DHT22;8570;52.380;4.654;2023-05-07T00:57:28;15.90;99.90
16907;DHT22;8570;52.380;4.654;2023-05-07T01:02:30;15.90;99.90
16907;DHT22;8570;52.380;4.654;2023-05-07T01:07:32;15.80;99.90
16907;DHT22;8570;52.380;4.654;2023-05-07T01:12:37;15.80;99.90
16907;DHT22;8570;52.380;4.654;2023-05-07T01:17:40;15.70;99.90
16907;DHT22;8570;52.380;4.654;2023-05-07T01:22:44;15.70;99.90
16907;DHT22;8570;52.380;4.654;2023-05-07T01:27:46;15.70;99.90
16907;DHT22;8570;52.380;4.654;2023-05-07T01:32:52;15.70;99.90
16907;DHT22;8570;52.380;4.654;2023-05-07T01:37:56;15.70;99.90
16907;DHT22;8570;52.380;4.654;2023-05-07T01:43:00;15.60;99.90
16907;DHT22;8570;52.380;4.654;2023-05-07T01:48:02;15.70;99.90
16907;DHT22;8570;52.380;4.654;2023-05-07T01:53:06;15.60;99.90
16907;DHT22;8570;52.380;4.654;2023-05-07T01:58:08;15.60;99.90
16907;DHT22;8570;52.380;4.654;2023-05-07T02:03:10;15.60;99.90
16907;DHT22;8570;52.380;4.654;2023-05-07T02:08:13;15.60;99.90
16907;DHT22;8570;52.380;4.654;2023-05-07T02:13:15;15.60;99.90
16907;DHT22;8570;52.380;4.654;2023-05-07T05:50:16;15.80;99.90
16907;DHT22;8570;52.380;4.654;2023-05-07T05:55:19;15.80;99.90
16907;DHT22;8570;52.380;4.654;2023-05-07T06:00:22;15.80;99.90
16907;DHT22;8570;52.380;4.654;2023-05-07T06:05:24;15.90;99.90
16907;DHT22;8570;52.380;4.654;2023-05-07T06:10:28;15.90;99.90
16907;DHT22;8570;52.380;4.654;2023-05-07T06:15:30;16.00;99.90
16907;DHT22;8570;52.380;4.654;2023-05-07T06:20:32;16.00;99.90
16907;DHT22;8570;52.380;4.654;2023-05-07T06:25:36;16.10;99.90
16907;DHT22;8570;52.380;4.654;2023-05-07T06:30:41;16.10;99.90
16907;DHT22;8570;52.380;4.654;2023-05-07T06:35:42;16.10;99.90
16907;DHT22;8570;52.380;4.654;2023-05-07T06:40:48;16.20;99.90
16907;DHT22;8570;52.380;4.654;2023-05-07T06:45:50;16.20;99.90
16907;DHT22;8570;52.380;4.654;2023-05-07T06:50:52;16.30;99.90
16907;DHT22;8570;52.380;4.654;2023-05-07T06:55:57;16.40;99.90
16907;DHT22;8570;52.380;4.654;2023-05-07T07:00:59;16.40;99.90
16907;DHT22;8570;52.380;4.654;2023-05-07T07:06:01;16.50;99.90
16907;DHT22;8570;52.380;4.654;2023-05-07T07:11:05;16.60;99.90
16907;DHT22;8570;52.380;4.654;2023-05-07T07:16:07;16.70;99.90
16907;DHT22;8570;52.380;4.654;2023-05-07T07:21:09;16.70;99.90
16907;DHT22;8570;52.380;4.654;2023-05-07T07:26:12;16.70;99.90
16907;DHT22;8570;52.380;4.654;2023-05-07T07:31:14;16.80;99.90
16907;DHT22;8570;52.380;4.654;2023-05-07T07:36:16;16.80;99.90
16907;DHT22;8570;52.380;4.654;2023-05-07T07:41:20;16.90;99.90
16907;DHT22;8570;52.380;4.654;2023-05-07T07:46:22;17.00;99.90
16907;DHT22;8570;52.380;4.654;2023-05-07T07:51:24;17.20;99.90
16907;DHT22;8570;52.380;4.654;2023-05-07T07:56:28;17.30;99.90
16907;DHT22;8570;52.380;4.654;2023-05-07T08:01:31;17.40;99.90
16907;DHT22;8570;52.380;4.654;2023-05-07T08:06:33;17.50;99.90
16907;DHT22;8570;52.380;4.654;2023-05-07T08:11:36;17.60;99.90
16907;DHT22;8570;52.380;4.654;2023-05-07T08:16:38;17.70;99.90
16907;DHT22;8570;52.380;4.654;2023-05-07T08:21:40;17.90;99.90
16907;DHT22;8570;52.380;4.654;2023-05-07T08:26:44;18.10;99.90
16907;DHT22;8570;52.380;4.654;2023-05-07T08:31:46;18.40;99.90
16907;DHT22;8570;52.380;4.654;2023-05-07T08:36:48;18.70;99.90
16907;DHT22;8570;52.380;4.654;2023-05-07T08:41:54;19.00;99.90
16907;DHT22;8570;52.380;4.654;2023-05-07T08:46:58;19.40;99.90
16907;DHT22;8570;52.380;4.654;2023-05-07T08:52:02;19.60;99.90
16907;DHT22;8570;52.380;4.654;2023-05-07T08:57:05;19.80;99.90
16907;DHT22;8570;52.380;4.654;2023-05-07T09:02:09;20.10;99.90
16907;DHT22;8570;52.380;4.654;2023-05-07T09:07:11;20.20;99.90
16907;DHT22;8570;52.380;4.654;2023-05-07T09:12:14;20.20;99.90
16907;DHT22;8570;52.380;4.654;2023-05-07T09:17:17;20.30;99.90
16907;DHT22;8570;52.380;4.654;2023-05-07T09:22:19;20.30;99.90
16907;DHT22;8570;52.380;4.654;2023-05-07T09:27:23;20.40;99.90
16907;DHT22;8570;52.380;4.654;2023-05-07T09:32:25;20.40;99.90
16907;DHT22;8570;52.380;4.654;2023-05-07T09:37:28;20.50;99.90
16907;DHT22;8570;52.380;4.654;2023-05-07T09:42:33;20.80;99.90
16907;DHT22;8570;52.380;4.654;2023-05-07T09:47:38;21.10;99.90
16907;DHT22;8570;52.380;4.654;2023-05-07T09:52:41;21.30;99.90
16907;DHT22;8570;52.380;4.654;2023-05-07T09:57:46;21.40;99.90
16907;DHT22;8570;52.380;4.654;2023-05-07T10:02:49;21.40;99.90
16907;DHT22;8570;52.380;4.654;2023-05-07T10:07:53;21.40;99.90
16907;DHT22;8570;52.380;4.654;2023-05-07T10:12:57;21.50;99.90
16907;DHT22;8570;52.380;4.654;2023-05-07T10:17:59;21.50;99.90
16907;DHT22;8570;52.380;4.654;2023-05-07T10:23:04;21.70;99.90
16907;DHT22;8570;52.380;4.654;2023-05-07T10:28:08;21.80;99.90
16907;DHT22;8570;52.380;4.654;2023-05-07T10:33:13;21.90;99.90
16907;DHT22;8570;52.380;4.654;2023-05-07T10:38:17;22.00;99.90
16907;DHT22;8570;52.380;4.654;2023-05-07T10:43:20;22.20;99.90
16907;DHT22;8570;52.380;4.654;2023-05-07T10:58:30;22.70;99.90
16907;DHT22;8570;52.380;4.654;2023-05-07T11:03:33;22.80;99.90
16907;DHT22;8570;52.380;4.654;2023-05-07T11:08:55;22.70;99.90
16907;DHT22;8570;52.380;4.654;2023-05-07T11:13:58;22.70;99.90
16907;DHT22;8570;52.380;4.654;2023-05-07T11:19:00;22.70;99.90
16907;DHT22;8570;52.380;4.654;2023-05-07T11:24:03;22.80;99.90
16907;DHT22;8570;52.380;4.654;2023-05-07T11:29:11;22.90;99.90
16907;DHT22;8570;52.380;4.654;2023-05-07T11:34:14;23.10;99.90
16907;DHT22;8570;52.380;4.654;2023-05-07T11:39:30;23.20;99.90
16907;DHT22;8570;52.380;4.654;2023-05-07T11:44:44;23.30;99.90
16907;DHT22;8570;52.380;4.654;2023-05-07T11:49:49;23.50;99.90
16907;DHT22;8570;52.380;4.654;2023-05-07T11:54:52;23.60;99.90
16907;DHT22;8570;52.380;4.654;2023-05-07T11:59:57;23.70;99.90
16907;DHT22;8570;52.380;4.654;2023-05-07T12:05:00;23.80;99.90
16907;DHT22;8570;52.380;4.654;2023-05-07T12:10:04;23.70;99.90
16907;DHT22;8570;52.380;4.654;2023-05-07T12:15:09;23.90;99.90
16907;DHT22;8570;52.380;4.654;2023-05-07T12:20:11;24.10;99.90
16907;DHT22;8570;52.380;4.654;2023-05-07T12:25:18;24.20;99.90
16907;DHT22;8570;52.380;4.654;2023-05-07T12:30:22;24.30;99.90
16907;DHT22;8570;52.380;4.654;2023-05-07T12:35:27;24.30;99.90
16907;DHT22;8570;52.380;4.654;2023-05-07T12:40:36;24.00;99.90
16907;DHT22;8570;52.380;4.654;2023-05-07T12:45:41;23.60;99.90
16907;DHT22;8570;52.380;4.654;2023-05-07T12:50:43;23.40;99.90
16907;DHT22;8570;52.380;4.654;2023-05-07T12:55:46;23.10;99.90
16907;DHT22;8570;52.380;4.654;2023-05-07T13:00:51;22.70;99.90
16907;DHT22;8570;52.380;4.654;2023-05-07T13:05:54;22.40;99.90
16907;DHT22;8570;52.380;4.654;2023-05-07T13:10:58;22.00;99.90
16907;DHT22;8570;52.380;4.654;2023-05-07T13:16:02;21.80;99.90
16907;DHT22;8570;52.380;4.654;2023-05-07T13:21:04;21.50;99.90
16907;DHT22;8570;52.380;4.654;2023-05-07T13:26:06;21.30;99.90
16907;DHT22;8570;52.380;4.654;2023-05-07T13:31:09;21.10;99.90
16907;DHT22;8570;52.380;4.654;2023-05-07T13:36:11;21.00;99.90
16907;DHT22;8570;52.380;4.654;2023-05-07T13:41:13;21.00;99.90
16907;DHT22;8570;52.380;4.654;2023-05-07T13:46:17;20.90;99.90
16907;DHT22;8570;52.380;4.654;2023-05-07T13:51:18;20.80;99.90
16907;DHT22;8570;52.380;4.654;2023-05-07T13:56:21;20.70;99.90
16907;DHT22;8570;52.380;4.654;2023-05-07T14:01:25;20.60;99.90
16907;DHT22;8570;52.380;4.654;2023-05-07T14:06:26;20.60;99.90
16907;DHT22;8570;52.380;4.654;2023-05-07T14:11:28;20.50;99.90
16907;DHT22;8570;52.380;4.654;2023-05-07T14:16:32;20.50;99.90
16907;DHT22;8570;52.380;4.654;2023-05-07T14:21:33;20.50;99.90
16907;DHT22;8570;52.380;4.654;2023-05-07T14:26:35;20.50;99.90
16907;DHT22;8570;52.380;4.654;2023-05-07T14:31:39;20.40;99.90
16907;DHT22;8570;52.380;4.654;2023-05-07T14:36:40;20.40;99.90
16907;DHT22;8570;52.380;4.654;2023-05-07T14:41:44;20.40;99.90
16907;DHT22;8570;52.380;4.654;2023-05-07T14:46:47;20.40;99.90
16907;DHT22;8570;52.380;4.654;2023-05-07T14:51:49;20.40;99.90
16907;DHT22;8570;52.380;4.654;2023-05-07T14:56:51;20.40;99.90
16907;DHT22;8570;52.380;4.654;2023-05-07T15:01:54;20.50;99.90
16907;DHT22;8570;52.380;4.654;2023-05-07T15:06:56;20.50;99.90
16907;DHT22;8570;52.380;4.654;2023-05-07T15:11:58;20.50;99.90
16907;DHT22;8570;52.380;4.654;2023-05-07T15:17:02;20.60;99.90
16907;DHT22;8570;52.380;4.654;2023-05-07T15:22:04;20.60;99.90
16907;DHT22;8570;52.380;4.654;2023-05-07T15:27:06;20.60;99.90
16907;DHT22;8570;52.380;4.654;2023-05-07T15:32:09;20.70;99.90
16907;DHT22;8570;52.380;4.654;2023-05-07T15:37:11;20.70;99.90
16907;DHT22;8570;52.380;4.654;2023-05-07T15:42:13;20.80;99.90
16907;DHT22;8570;52.380;4.654;2023-05-07T15:47:16;20.80;99.90
16907;DHT22;8570;52.380;4.654;2023-05-07T15:52:18;20.90;99.90
16907;DHT22;8570;52.380;4.654;2023-05-07T15:57:21;21.10;99.90
16907;DHT22;8570;52.380;4.654;2023-05-07T16:02:24;21.30;99.90
16907;DHT22;8570;52.380;4.654;2023-05-07T16:07:26;21.40;99.90
16907;DHT22;8570;52.380;4.654;2023-05-07T16:12:28;21.40;99.90
16907;DHT22;8570;52.380;4.654;2023-05-07T16:17:31;21.30;99.90
16907;DHT22;8570;52.380;4.654;2023-05-07T16:22:33;21.20;99.90
16907;DHT22;8570;52.380;4.654;2023-05-07T16:27:36;21.10;99.90
16907;DHT22;8570;52.380;4.654;2023-05-07T16:32:39;21.10;99.90
16907;DHT22;8570;52.380;4.654;2023-05-07T16:37:41;21.00;99.90
16907;DHT22;8570;52.380;4.654;2023-05-07T16:42:43;20.80;99.90
16907;DHT22;8570;52.380;4.654;2023-05-07T16:47:46;20.80;99.90
16907;DHT22;8570;52.380;4.654;2023-05-07T16:52:48;20.70;99.90
16907;DHT22;8570;52.380;4.654;2023-05-07T16:57:50;20.60;99.90
16907;DHT22;8570;52.380;4.654;2023-05-07T17:02:53;20.50;99.90
16907;DHT22;8570;52.380;4.654;2023-05-07T17:07:55;20.40;99.90
16907;DHT22;8570;52.380;4.654;2023-05-07T17:12:57;20.40;99.90
16907;DHT22;8570;52.380;4.654;2023-05-07T17:18:00;20.30;99.90
16907;DHT22;8570;52.380;4.654;2023-05-07T17:23:02;20.30;99.90
16907;DHT22;8570;52.380;4.654;2023-05-07T17:28:04;20.30;99.90
16907;DHT22;8570;52.380;4.654;2023-05-07T17:33:07;20.20;99.90
16907;DHT22;8570;52.380;4.654;2023-05-07T17:38:09;20.10;99.90
16907;DHT22;8570;52.380;4.654;2023-05-07T17:43:11;20.00;99.90
16907;DHT22;8570;52.380;4.654;2023-05-07T17:48:14;19.80;99.90
16907;DHT22;8570;52.380;4.654;2023-05-07T17:53:16;19.70;99.90
16907;DHT22;8570;52.380;4.654;2023-05-07T17:58:18;19.60;99.90
16907;DHT22;8570;52.380;4.654;2023-05-07T18:03:23;19.50;99.90
16907;DHT22;8570;52.380;4.654;2023-05-07T18:08:25;19.40;99.90
16907;DHT22;8570;52.380;4.654;2023-05-07T18:13:27;19.30;99.90
16907;DHT22;8570;52.380;4.654;2023-05-07T18:18:30;19.20;99.90
16907;DHT22;8570;52.380;4.654;2023-05-07T18:23:34;19.10;99.90
16907;DHT22;8570;52.380;4.654;2023-05-07T18:28:37;19.00;99.90
16907;DHT22;8570;52.380;4.654;2023-05-07T18:33:40;18.90;99.90
16907;DHT22;8570;52.380;4.654;2023-05-07T18:38:42;18.90;99.90
16907;DHT22;8570;52.380;4.654;2023-05-07T18:43:44;18.80;99.90
16907;DHT22;8570;52.380;4.654;2023-05-07T18:48:48;18.70;99.90
16907;DHT22;8570;52.380;4.654;2023-05-07T18:53:50;18.60;99.90
16907;DHT22;8570;52.380;4.654;2023-05-07T18:58:52;18.50;99.90
16907;DHT22;8570;52.380;4.654;2023-05-07T19:03:56;18.50;99.90
16907;DHT22;8570;52.380;4.654;2023-05-07T19:08:58;18.50;99.90
16907;DHT22;8570;52.380;4.654;2023-05-07T19:14:02;18.40;99.90
16907;DHT22;8570;52.380;4.654;2023-05-07T19:19:06;18.40;99.90
16907;DHT22;8570;52.380;4.654;2023-05-07T19:24:08;18.30;99.90
16907;DHT22;8570;52.380;4.654;2023-05-07T19:29:10;18.30;99.90
16907;DHT22;8570;52.380;4.654;2023-05-07T19:34:13;18.20;99.90
16907;DHT22;8570;52.380;4.654;2023-05-07T19:39:15;18.10;99.90
16907;DHT22;8570;52.380;4.654;2023-05-07T19:44:18;18.10;99.90
16907;DHT22;8570;52.380;4.654;2023-05-07T19:54:24;17.90;99.90
16907;DHT22;8570;52.380;4.654;2023-05-07T19:59:26;17.80;99.90
16907;DHT22;8570;52.380;4.654;2023-05-07T20:04:29;17.70;99.90
16907;DHT22;8570;52.380;4.654;2023-05-07T20:09:36;17.60;99.90
16907;DHT22;8570;52.380;4.654;2023-05-07T20:14:40;17.50;99.90
16907;DHT22;8570;52.380;4.654;2023-05-07T20:19:44;17.40;99.90
16907;DHT22;8570;52.380;4.654;2023-05-07T20:24:46;17.40;99.90
16907;DHT22;8570;52.380;4.654;2023-05-07T20:29:48;17.30;99.90
16907;DHT22;8570;52.380;4.654;2023-05-07T20:34:51;17.30;99.90
16907;DHT22;8570;52.380;4.654;2023-05-07T20:39:53;17.20;99.90
16907;DHT22;8570;52.380;4.654;2023-05-07T20:44:55;17.20;99.90
16907;DHT22;8570;52.380;4.654;2023-05-07T20:49:59;17.10;99.90
16907;DHT22;8570;52.380;4.654;2023-05-07T20:55:01;17.10;99.90
16907;DHT22;8570;52.380;4.654;2023-05-07T21:00:03;17.00;99.90
16907;DHT22;8570;52.380;4.654;2023-05-07T21:05:07;16.90;99.90
16907;DHT22;8570;52.380;4.654;2023-05-07T21:10:09;16.90;99.90
16907;DHT22;8570;52.380;4.654;2023-05-07T21:15:11;16.80;99.90
16907;DHT22;8570;52.380;4.654;2023-05-07T21:20:15;16.70;99.90
16907;DHT22;8570;52.380;4.654;2023-05-07T21:25:17;16.70;99.90
16907;DHT22;8570;52.380;4.654;2023-05-07T21:30:19;16.60;99.90
16907;DHT22;8570;52.380;4.654;2023-05-07T21:35:22;16.60;99.90
16907;DHT22;8570;52.380;4.654;2023-05-07T21:40:24;16.50;99.90
16907;DHT22;8570;52.380;4.654;2023-05-07T21:45:26;16.40;99.90
16907;DHT22;8570;52.380;4.654;2023-05-07T21:50:29;16.30;99.90
16907;DHT22;8570;52.380;4.654;2023-05-07T21:55:31;16.30;99.90
16907;DHT22;8570;52.380;4.654;2023-05-07T22:00:33;16.30;99.90
16907;DHT22;8570;52.380;4.654;2023-05-07T22:05:37;16.20;99.90
16907;DHT22;8570;52.380;4.654;2023-05-07T22:10:39;16.20;99.90
16907;DHT22;8570;52.380;4.654;2023-05-07T22:15:41;16.10;99.90
16907;DHT22;8570;52.380;4.654;2023-05-07T22:20:44;16.10;99.90
16907;DHT22;8570;52.380;4.654;2023-05-07T22:25:46;16.00;99.90
16907;DHT22;8570;52.380;4.654;2023-05-07T22:30:48;16.00;99.90
16907;DHT22;8570;52.380;4.654;2023-05-07T22:35:52;15.90;99.90
16907;DHT22;8570;52.380;4.654;2023-05-07T22:40:53;15.90;99.90
16907;DHT22;8570;52.380;4.654;2023-05-07T22:45:59;15.80;99.90
16907;DHT22;8570;52.380;4.654;2023-05-07T22:51:03;15.80;99.90
16907;DHT22;8570;52.380;4.654;2023-05-07T22:56:05;15.70;99.90
16907;DHT22;8570;52.380;4.654;2023-05-07T23:01:11;15.60;99.90
16907;DHT22;8570;52.380;4.654;2023-05-07T23:06:14;15.60;99.90
16907;DHT22;8570;52.380;4.654;2023-05-07T23:11:16;15.50;99.90
16907;DHT22;8570;52.380;4.654;2023-05-07T23:16:18;15.50;99.90
16907;DHT22;8570;52.380;4.654;2023-05-07T23:21:21;15.40;99.90
16907;DHT22;8570;52.380;4.654;2023-05-07T23:26:25;15.30;99.90
16907;DHT22;8570;52.380;4.654;2023-05-07T23:31:27;15.30;99.90
16907;DHT22;8570;52.380;4.654;2023-05-07T23:36:31;15.20;99.90
16907;DHT22;8570;52.380;4.654;2023-05-07T23:41:33;15.20;99.90
